createdAt,value
2018-12-29T00:02:03.985Z,9.77
2018-12-29T00:04:37.557Z,10.23
2018-12-29T00:07:11.165Z,9.87
2018-12-29T00:09:44.737Z,10.43
2018-12-29T00:12:18.344Z,9.83
2018-12-29T00:14:55.166Z,10.03
2018-12-29T00:17:27.173Z,10.37
2018-12-29T00:20:00.743Z,11.60
2018-12-29T00:22:34.361Z,14.03
2018-12-29T00:25:07.929Z,13.73
2018-12-29T00:27:41.536Z,15.20
2018-12-29T00:30:15.105Z,15.03
2018-12-29T00:32:48.706Z,15.33
2018-12-29T00:35:22.282Z,14.70
2018-12-29T00:37:55.912Z,16.13
2018-12-29T00:40:29.486Z,18.50
2018-12-29T00:43:03.195Z,18.37
2018-12-29T00:45:36.805Z,19.70
2018-12-29T00:48:10.411Z,20.43
2018-12-29T00:50:43.989Z,24.53
2018-12-29T00:53:17.601Z,25.50
2018-12-29T00:55:51.176Z,22.97
2018-12-29T00:58:24.777Z,24.90
2018-12-29T01:00:58.421Z,23.27
2018-12-29T01:03:32.030Z,21.73
2018-12-29T01:06:05.603Z,22.63
2018-12-29T01:08:39.209Z,21.80
2018-12-29T01:11:12.775Z,24.93
2018-12-29T01:13:46.397Z,25.33
2018-12-29T01:16:19.962Z,26.17
2018-12-29T01:18:53.562Z,25.90
2018-12-29T01:21:27.130Z,28.90
2018-12-29T01:24:00.734Z,25.47
2018-12-29T01:26:34.313Z,26.90
2018-12-29T01:29:07.956Z,27.23
2018-12-29T01:31:41.450Z,28.07
2018-12-29T01:34:15.049Z,26.87
2018-12-29T01:36:48.684Z,23.17
2018-12-29T01:39:22.313Z,23.40
2018-12-29T01:41:56.152Z,22.73
2018-12-29T01:44:29.752Z,22.03
2018-12-29T01:47:03.399Z,19.50
2018-12-29T01:49:37.015Z,20.00
2018-12-29T01:52:10.585Z,17.63
2018-12-29T01:54:44.509Z,17.73
2018-12-29T01:57:18.037Z,14.83
2018-12-29T01:59:51.659Z,16.73
2018-12-29T02:02:25.489Z,16.33
2018-12-29T02:04:59.157Z,15.33
2018-12-29T02:07:32.728Z,16.57
2018-12-29T02:10:06.421Z,16.23
2018-12-29T02:12:39.920Z,17.53
2018-12-29T02:15:13.530Z,16.47
2018-12-29T02:17:47.093Z,16.07
2018-12-29T02:20:20.619Z,17.13
2018-12-29T02:22:54.198Z,19.10
2018-12-29T02:25:27.802Z,19.23
2018-12-29T02:28:01.659Z,19.03
2018-12-29T02:30:35.262Z,18.83
2018-12-29T02:33:08.832Z,17.53
2018-12-29T02:35:42.485Z,20.10
2018-12-29T02:38:16.128Z,21.03
2018-12-29T02:40:49.745Z,21.07
2018-12-29T02:43:23.320Z,21.87
2018-12-29T02:45:57.024Z,21.57
2018-12-29T02:48:30.599Z,22.07
2018-12-29T02:51:04.195Z,22.10
2018-12-29T02:53:37.776Z,22.47
2018-12-29T02:56:11.374Z,23.10
2018-12-29T02:58:44.961Z,23.23
2018-12-29T03:01:18.617Z,22.77
2018-12-29T03:03:52.189Z,23.47
2018-12-29T03:06:25.972Z,24.10
2018-12-29T03:08:59.580Z,23.67
2018-12-29T03:11:33.168Z,23.63
2018-12-29T03:14:06.742Z,24.67
2018-12-29T03:16:40.364Z,24.00
2018-12-29T03:19:13.941Z,23.40
2018-12-29T03:21:47.624Z,24.30
2018-12-29T03:24:21.201Z,23.60
2018-12-29T03:26:54.793Z,23.37
2018-12-29T03:29:28.362Z,25.03
2018-12-29T03:32:02.029Z,23.73
2018-12-29T03:34:35.608Z,23.87
2018-12-29T03:37:09.211Z,25.30
2018-12-29T03:39:42.780Z,23.10
2018-12-29T03:42:16.384Z,23.97
2018-12-29T03:44:50.044Z,23.63
2018-12-29T03:47:23.636Z,23.47
2018-12-29T03:49:57.201Z,24.30
2018-12-29T03:52:30.868Z,24.50
2018-12-29T03:55:04.988Z,21.63
2018-12-29T03:57:38.593Z,22.43
2018-12-29T04:00:12.812Z,21.77
2018-12-29T04:02:46.420Z,22.73
2018-12-29T04:05:20.050Z,23.17
2018-12-29T04:07:53.657Z,22.63
2018-12-29T04:10:27.227Z,21.23
2018-12-29T04:13:00.824Z,21.73
2018-12-29T04:15:34.695Z,22.93
2018-12-29T04:18:08.301Z,23.10
2018-12-29T04:20:42.184Z,23.40
2018-12-29T04:23:15.784Z,21.10
2018-12-29T04:25:49.360Z,22.37
2018-12-29T04:28:22.964Z,22.93
2018-12-29T04:30:56.533Z,23.67
2018-12-29T04:33:30.136Z,22.70
2018-12-29T04:36:03.636Z,24.30
2018-12-29T04:38:37.235Z,23.60
2018-12-29T04:41:10.923Z,22.70
2018-12-29T04:43:44.530Z,22.53
2018-12-29T04:46:18.120Z,21.10
2018-12-29T04:48:51.722Z,22.27
2018-12-29T04:51:25.296Z,21.03
2018-12-29T04:53:58.901Z,19.80
2018-12-29T04:56:32.492Z,20.73
2018-12-29T04:59:06.027Z,20.63
2018-12-29T05:01:39.606Z,21.30
2018-12-29T05:04:13.273Z,20.60
2018-12-29T05:06:46.843Z,20.43
2018-12-29T05:09:20.452Z,22.17
2018-12-29T05:11:53.955Z,21.57
2018-12-29T05:14:27.545Z,22.43
2018-12-29T05:17:01.124Z,20.80
2018-12-29T05:19:34.720Z,21.03
2018-12-29T05:22:08.604Z,19.47
2018-12-29T05:24:42.175Z,19.97
2018-12-29T05:27:15.751Z,20.00
2018-12-29T05:29:49.371Z,20.63
2018-12-29T05:32:22.945Z,19.77
2018-12-29T05:34:56.599Z,20.07
2018-12-29T05:37:30.187Z,19.50
2018-12-29T05:40:04.723Z,21.07
2018-12-29T05:42:38.295Z,21.97
2018-12-29T05:45:11.958Z,22.03
2018-12-29T05:47:45.530Z,21.83
2018-12-29T05:50:19.120Z,22.97
2018-12-29T05:52:52.758Z,21.77
2018-12-29T05:55:26.380Z,20.80
2018-12-29T05:57:59.944Z,19.57
2018-12-29T06:00:33.628Z,20.33
2018-12-29T06:03:07.256Z,21.53
2018-12-29T06:05:40.848Z,21.60
2018-12-29T06:08:15.527Z,21.97
2018-12-29T06:10:49.143Z,22.63
2018-12-29T06:13:23.799Z,23.67
2018-12-29T06:15:58.334Z,22.03
2018-12-29T06:18:31.934Z,25.47
2018-12-29T06:21:05.674Z,24.97
2018-12-29T06:23:39.256Z,25.07
2018-12-29T06:26:12.921Z,23.30
2018-12-29T06:28:46.562Z,23.27
2018-12-29T06:31:20.511Z,21.63
2018-12-29T06:33:58.711Z,23.43
2018-12-29T06:36:32.383Z,23.73
2018-12-29T06:39:06.519Z,23.40
2018-12-29T06:41:41.873Z,22.90
2018-12-29T06:44:17.500Z,23.57
2018-12-29T06:46:51.191Z,23.53
2018-12-29T06:49:24.885Z,22.53
2018-12-29T06:51:58.622Z,21.57
2018-12-29T06:54:32.520Z,21.90
2018-12-29T06:57:06.134Z,22.57
2018-12-29T06:59:39.774Z,21.60
2018-12-29T07:02:14.115Z,21.27
2018-12-29T07:04:47.812Z,21.20
2018-12-29T07:07:21.438Z,22.20
2018-12-29T07:09:55.086Z,20.73
2018-12-29T07:12:30.434Z,21.13
2018-12-29T07:15:05.751Z,20.90
2018-12-29T07:17:39.693Z,21.03
2018-12-29T07:20:13.420Z,20.83
2018-12-29T07:22:47.838Z,20.97
2018-12-29T07:25:21.698Z,21.67
2018-12-29T07:27:57.514Z,19.67
2018-12-29T07:30:31.381Z,19.97
2018-12-29T07:33:04.981Z,18.10
2018-12-29T07:35:39.361Z,18.17
2018-12-29T07:38:13.757Z,17.87
2018-12-29T07:40:48.151Z,16.80
2018-12-29T07:43:22.622Z,16.17
2018-12-29T07:45:58.233Z,17.23
2018-12-29T07:48:32.634Z,16.53
2018-12-29T07:51:06.488Z,17.17
2018-12-29T07:53:40.360Z,16.73
2018-12-29T07:56:15.216Z,16.37
2018-12-29T07:58:48.828Z,14.60
2018-12-29T08:01:22.679Z,15.00
2018-12-29T08:03:58.189Z,14.47
2018-12-29T08:06:31.800Z,13.90
2018-12-29T08:09:08.282Z,13.97
2018-12-29T08:11:42.158Z,13.13
2018-12-29T08:14:16.414Z,12.80
2018-12-29T08:16:56.653Z,11.30
2018-12-29T08:19:25.582Z,12.10
2018-12-29T08:22:00.428Z,10.93
2018-12-29T08:24:41.101Z,10.37
2018-12-29T08:27:17.703Z,11.50
2018-12-29T08:29:51.327Z,10.53
2018-12-29T08:32:24.994Z,9.43
2018-12-29T08:34:58.628Z,9.83
2018-12-29T08:37:32.218Z,8.43
2018-12-29T08:40:05.830Z,8.07
2018-12-29T08:42:39.416Z,8.60
2018-12-29T08:45:13.101Z,7.20
2018-12-29T08:47:55.835Z,7.37
2018-12-29T08:50:29.446Z,7.30
2018-12-29T08:53:12.271Z,8.17
2018-12-29T08:55:45.891Z,6.63
2018-12-29T08:58:24.339Z,6.27
2018-12-29T09:00:58.032Z,6.23
2018-12-29T09:03:31.641Z,6.97
2018-12-29T09:06:05.335Z,7.23
2018-12-29T09:08:39.024Z,7.03
2018-12-29T09:11:12.777Z,7.07
2018-12-29T09:13:46.351Z,5.53
2018-12-29T09:16:20.041Z,6.43
2018-12-29T09:18:53.634Z,5.77
2018-12-29T09:21:30.366Z,6.03
2018-12-29T09:24:03.968Z,6.40
2018-12-29T09:26:37.649Z,6.77
2018-12-29T09:29:11.305Z,6.30
2018-12-29T09:31:45.069Z,6.43
2018-12-29T09:34:22.400Z,5.70
2018-12-29T09:36:58.638Z,5.63
2018-12-29T09:39:32.241Z,5.63
2018-12-29T09:42:06.018Z,5.80
2018-12-29T09:44:39.628Z,5.53
2018-12-29T09:47:19.741Z,6.03
2018-12-29T09:49:53.606Z,6.20
2018-12-29T09:52:27.239Z,6.00
2018-12-29T09:55:00.830Z,6.47
2018-12-29T09:57:34.500Z,5.70
2018-12-29T10:00:08.843Z,5.00
2018-12-29T10:02:42.531Z,5.00
2018-12-29T10:05:16.121Z,5.30
2018-12-29T10:08:04.986Z,5.33
2018-12-29T10:10:38.639Z,5.30
2018-12-29T10:13:27.372Z,5.93
2018-12-29T10:16:00.955Z,5.03
2018-12-29T10:18:34.594Z,4.80
2018-12-29T10:21:08.179Z,5.13
2018-12-29T10:23:41.818Z,5.50
2018-12-29T10:26:15.398Z,5.07
2018-12-29T10:28:49.035Z,5.23
2018-12-29T10:31:32.050Z,5.97
2018-12-29T10:34:06.017Z,5.37
2018-12-29T10:36:39.610Z,4.83
2018-12-29T10:39:13.298Z,4.73
2018-12-29T10:41:47.015Z,4.13
2018-12-29T10:44:20.601Z,6.00
2018-12-29T10:46:54.213Z,5.60
2018-12-29T10:49:27.840Z,5.60
2018-12-29T10:52:01.496Z,5.13
2018-12-29T10:54:36.147Z,6.40
2018-12-29T10:57:09.798Z,7.20
2018-12-29T10:59:43.435Z,6.17
2018-12-29T11:02:17.421Z,8.10
2018-12-29T11:04:51.109Z,8.63
2018-12-29T11:07:33.850Z,7.70
2018-12-29T11:10:07.919Z,5.87
2018-12-29T11:12:42.582Z,6.73
2018-12-29T11:15:16.686Z,5.60
2018-12-29T11:17:54.068Z,6.07
2018-12-29T11:20:27.696Z,6.50
2018-12-29T11:23:04.292Z,6.37
2018-12-29T11:25:37.918Z,6.77
2018-12-29T11:28:11.504Z,6.20
2018-12-29T11:30:45.135Z,6.37
2018-12-29T11:33:18.794Z,6.77
2018-12-29T11:35:52.470Z,6.70
2018-12-29T11:38:26.198Z,6.80
2018-12-29T11:40:59.838Z,6.60
2018-12-29T11:43:33.424Z,7.00
2018-12-29T11:46:07.131Z,6.57
2018-12-29T11:48:40.717Z,6.23
2018-12-29T11:51:21.472Z,5.53
2018-12-29T11:53:55.140Z,5.80
2018-12-29T11:56:31.801Z,5.07
2018-12-29T11:59:05.459Z,5.83
2018-12-29T12:01:46.092Z,4.73
2018-12-29T12:04:19.646Z,4.90
2018-12-29T12:06:53.590Z,6.40
2018-12-29T12:09:30.418Z,5.37
2018-12-29T12:12:04.122Z,4.63
2018-12-29T12:14:43.842Z,4.87
2018-12-29T12:17:17.478Z,5.07
2018-12-29T12:19:51.161Z,5.30
2018-12-29T12:22:24.791Z,5.20
2018-12-29T12:25:04.662Z,5.33
2018-12-29T12:27:38.301Z,5.70
2018-12-29T12:30:11.966Z,5.53
2018-12-29T12:32:45.654Z,4.70
2018-12-29T12:35:19.310Z,3.80
2018-12-29T12:37:52.933Z,3.90
2018-12-29T12:40:26.526Z,3.80
2018-12-29T12:43:00.453Z,3.77
2018-12-29T12:45:34.055Z,4.03
2018-12-29T12:48:07.794Z,3.93
2018-12-29T12:50:41.403Z,3.60
2018-12-29T12:53:24.170Z,3.60
2018-12-29T12:55:57.776Z,3.53
2018-12-29T12:58:31.679Z,3.40
2018-12-29T13:01:17.797Z,4.00
2018-12-29T13:03:51.414Z,3.30
2018-12-29T13:06:43.477Z,3.27
2018-12-29T13:09:17.286Z,3.37
2018-12-29T13:11:50.887Z,3.17
2018-12-29T13:14:38.569Z,3.30
2018-12-29T13:17:12.362Z,3.30
2018-12-29T13:19:45.989Z,3.97
2018-12-29T13:22:19.649Z,4.00
2018-12-29T13:24:53.598Z,4.37
2018-12-29T13:27:29.229Z,4.33
2018-12-29T13:30:02.851Z,4.27
2018-12-29T13:32:36.453Z,4.80
2018-12-29T13:35:10.534Z,4.53
2018-12-29T13:37:44.130Z,5.77
2018-12-29T13:40:17.747Z,5.80
2018-12-29T13:42:51.670Z,6.20
2018-12-29T13:45:25.378Z,6.17
2018-12-29T13:47:58.974Z,6.00
2018-12-29T13:50:36.108Z,6.57
2018-12-29T13:53:10.388Z,8.93
2018-12-29T13:55:44.001Z,8.30
2018-12-29T13:58:32.612Z,8.53
2018-12-29T14:01:06.559Z,10.37
2018-12-29T14:03:51.988Z,10.73
2018-12-29T14:06:25.694Z,9.97
2018-12-29T14:08:59.300Z,11.27
2018-12-29T14:11:51.047Z,14.73
2018-12-29T14:14:24.651Z,14.30
2018-12-29T14:17:04.805Z,14.07
2018-12-29T14:19:38.378Z,13.87
2018-12-29T14:22:12.097Z,15.63
2018-12-29T14:24:45.772Z,12.83
2018-12-29T14:27:19.381Z,14.00
2018-12-29T14:29:52.968Z,14.90
2018-12-29T14:32:26.689Z,14.90
2018-12-29T14:35:00.296Z,15.00
2018-12-29T14:37:33.899Z,15.73
2018-12-29T14:40:07.573Z,14.77
2018-12-29T14:42:41.568Z,16.90
2018-12-29T14:45:15.164Z,17.33
2018-12-29T14:47:48.794Z,17.93
2018-12-29T14:50:53.006Z,17.20
2018-12-29T14:53:26.636Z,18.07
2018-12-29T14:56:00.238Z,18.13
2018-12-29T14:58:49.004Z,18.87
2018-12-29T15:01:22.670Z,19.47
2018-12-29T15:03:56.594Z,19.00
2018-12-29T15:06:30.196Z,19.10
2018-12-29T15:09:04.805Z,18.13
2018-12-29T15:11:38.442Z,19.03
2018-12-29T15:14:18.201Z,19.67
2018-12-29T15:16:52.101Z,17.93
2018-12-29T15:19:34.613Z,19.23
2018-12-29T15:22:08.270Z,19.30
2018-12-29T15:24:42.294Z,21.13
2018-12-29T15:27:15.891Z,21.60
2018-12-29T15:29:49.529Z,21.37
2018-12-29T15:32:35.349Z,21.00
2018-12-29T15:35:09.192Z,21.27
2018-12-29T15:37:42.855Z,22.83
2018-12-29T15:40:16.494Z,22.50
2018-12-29T15:42:50.162Z,21.07
2018-12-29T15:45:23.788Z,20.53
2018-12-29T15:47:57.389Z,21.23
2018-12-29T15:50:31.057Z,19.43
2018-12-29T15:53:05.028Z,21.33
2018-12-29T15:55:38.666Z,21.90
2018-12-29T15:58:12.535Z,22.40
2018-12-29T16:00:46.241Z,22.50
2018-12-29T16:03:20.215Z,24.27
2018-12-29T16:05:54.139Z,23.23
2018-12-29T16:08:27.734Z,22.13
2018-12-29T16:11:08.456Z,21.97
2018-12-29T16:13:42.360Z,21.90
2018-12-29T16:16:15.983Z,22.17
2018-12-29T16:18:58.888Z,22.70
2018-12-29T16:21:30.957Z,23.17
2018-12-29T16:24:04.696Z,20.87
2018-12-29T16:26:39.268Z,22.50
2018-12-29T16:29:12.930Z,22.10
2018-12-29T16:31:46.585Z,22.23
2018-12-29T16:34:20.487Z,22.37
2018-12-29T16:36:54.122Z,21.70
2018-12-29T16:39:27.725Z,24.33
2018-12-29T16:42:01.349Z,23.73
2018-12-29T16:44:35.017Z,26.33
2018-12-29T16:47:10.678Z,24.57
2018-12-29T16:49:44.439Z,27.13
2018-12-29T16:52:18.052Z,26.37
2018-12-29T16:54:53.347Z,27.37
2018-12-29T16:57:27.080Z,26.40
2018-12-29T17:00:12.827Z,28.97
2018-12-29T17:02:46.454Z,28.90
2018-12-29T17:06:03.231Z,27.20
2018-12-29T17:08:36.912Z,27.80
2018-12-29T17:11:10.507Z,27.43
2018-12-29T17:13:44.538Z,23.93
2018-12-29T17:16:18.136Z,26.30
2018-12-29T17:18:51.752Z,25.70
2018-12-29T17:21:25.346Z,24.73
2018-12-29T17:23:59.059Z,27.17
2018-12-29T17:26:32.632Z,26.30
2018-12-29T17:29:06.246Z,24.87
2018-12-29T17:31:39.919Z,23.37
2018-12-29T17:34:13.951Z,24.57
2018-12-29T17:36:48.669Z,24.23
2018-12-29T17:39:22.289Z,19.40
2018-12-29T17:42:08.089Z,24.03
2018-12-29T17:44:41.860Z,22.57
2018-12-29T17:47:30.703Z,21.10
2018-12-29T17:50:05.301Z,20.67
2018-12-29T17:52:38.896Z,21.40
2018-12-29T17:55:16.026Z,20.53
2018-12-29T17:57:50.101Z,19.97
2018-12-29T18:00:30.307Z,19.97
2018-12-29T18:03:04.199Z,20.63
2018-12-29T18:05:37.838Z,22.13
2018-12-29T18:08:16.137Z,18.80
2018-12-29T18:10:49.851Z,18.93
2018-12-29T18:13:35.449Z,19.03
2018-12-29T18:16:09.062Z,20.07
2018-12-29T18:18:42.761Z,21.30
2018-12-29T18:21:16.381Z,19.10
2018-12-29T18:23:59.076Z,20.87
2018-12-29T18:26:32.686Z,20.00
2018-12-29T18:29:09.354Z,16.57
2018-12-29T18:31:42.978Z,20.33
2018-12-29T18:34:18.417Z,20.70
2018-12-29T18:36:52.050Z,19.90
2018-12-29T18:39:37.570Z,20.00
2018-12-29T18:42:11.201Z,17.70
2018-12-29T18:44:44.796Z,21.17
2018-12-29T18:47:18.563Z,21.37
2018-12-29T18:49:52.230Z,22.43
2018-12-29T18:52:26.266Z,19.07
2018-12-29T18:55:00.287Z,20.20
2018-12-29T18:57:34.073Z,21.47
2018-12-29T19:00:08.206Z,20.63
2018-12-29T19:02:50.783Z,20.80
2018-12-29T19:05:24.430Z,20.40
2018-12-29T19:08:08.090Z,19.83
2018-12-29T19:10:41.718Z,21.43
2018-12-29T19:13:16.101Z,20.67
2018-12-29T19:15:49.929Z,21.23
2018-12-29T19:18:26.744Z,23.77
2018-12-29T19:21:00.454Z,21.63
2018-12-29T19:23:34.492Z,20.53
2018-12-29T19:26:21.556Z,20.33
2018-12-29T19:28:55.594Z,20.57
2018-12-29T19:31:45.016Z,21.97
2018-12-29T19:34:16.863Z,22.47
2018-12-29T19:36:51.209Z,21.27
2018-12-29T19:39:25.301Z,20.67
2018-12-29T19:42:20.923Z,21.83
2018-12-29T19:44:54.563Z,21.50
2018-12-29T19:47:28.264Z,20.97
2018-12-29T19:50:08.373Z,22.23
2018-12-29T19:52:41.971Z,22.20
2018-12-29T19:55:15.618Z,25.13
2018-12-29T19:57:51.265Z,23.20
2018-12-29T20:00:25.310Z,21.30
2018-12-29T20:03:20.968Z,22.30
2018-12-29T20:05:55.062Z,20.97
2018-12-29T20:08:38.513Z,21.73
2018-12-29T20:11:12.203Z,22.63
2018-12-29T20:13:53.894Z,22.27
2018-12-29T20:16:27.902Z,21.87
2018-12-29T20:19:01.578Z,21.80
2018-12-29T20:21:50.979Z,21.23
2018-12-29T20:24:24.981Z,22.43
2018-12-29T20:26:58.692Z,23.33
2018-12-29T20:29:32.590Z,22.13
2018-12-29T20:32:12.550Z,21.57
2018-12-29T20:34:46.151Z,20.73
2018-12-29T20:37:24.546Z,22.13
2018-12-29T20:39:58.149Z,22.13
2018-12-29T20:42:41.309Z,23.17
2018-12-29T20:45:14.973Z,21.57
2018-12-29T20:47:48.685Z,22.13
2018-12-29T20:50:24.714Z,20.77
2018-12-29T20:52:58.367Z,22.67
2018-12-29T20:55:32.002Z,21.93
2018-12-29T20:58:08.689Z,23.03
2018-12-29T21:00:42.391Z,21.17
2018-12-29T21:03:16.200Z,20.67
2018-12-29T21:05:57.341Z,19.87
2018-12-29T21:08:31.321Z,19.60
2018-12-29T21:11:04.918Z,19.23
2018-12-29T21:13:54.995Z,18.97
2018-12-29T21:16:28.661Z,17.87
2018-12-29T21:19:02.475Z,17.27
2018-12-29T21:21:36.074Z,16.70
2018-12-29T21:24:12.394Z,15.37
2018-12-29T21:26:54.414Z,17.23
2018-12-29T21:29:28.063Z,16.03
2018-12-29T21:32:04.784Z,15.27
2018-12-29T21:34:38.404Z,15.10
2018-12-29T21:37:24.623Z,15.20
2018-12-29T21:39:58.383Z,13.67
2018-12-29T21:42:31.975Z,13.70
2018-12-29T21:45:13.375Z,13.53
2018-12-29T21:47:47.042Z,12.60
2018-12-29T21:50:26.289Z,12.80
2018-12-29T21:53:00.627Z,12.20
2018-12-29T21:55:37.324Z,11.93
2018-12-29T21:58:10.925Z,11.60
2018-12-29T22:00:50.382Z,11.50
2018-12-29T22:03:24.096Z,12.30
2018-12-29T22:06:02.709Z,11.00
2018-12-29T22:08:36.387Z,9.80
2018-12-29T22:11:10.535Z,9.13
2018-12-29T22:13:44.205Z,8.40
2018-12-29T22:16:21.009Z,8.67
2018-12-29T22:18:54.671Z,7.90
2018-12-29T22:21:28.637Z,7.27
2018-12-29T22:24:02.295Z,6.83
2018-12-29T22:26:36.092Z,6.37
2018-12-29T22:29:09.715Z,7.00
2018-12-29T22:31:43.316Z,7.00
2018-12-29T22:34:17.023Z,5.43
2018-12-29T22:36:52.701Z,6.17
2018-12-29T22:39:29.502Z,6.40
2018-12-29T22:42:03.128Z,6.67
2018-12-29T22:44:36.868Z,8.00
2018-12-29T22:47:13.652Z,9.33
2018-12-29T22:49:47.656Z,11.40
2018-12-29T22:52:21.345Z,9.80
2018-12-29T22:54:54.935Z,8.77
2018-12-29T22:57:40.508Z,9.53
2018-12-29T23:00:15.866Z,8.97
2018-12-29T23:02:55.945Z,9.03
2018-12-29T23:05:30.096Z,7.77
2018-12-29T23:08:16.066Z,8.17
2018-12-29T23:10:49.650Z,5.87
2018-12-29T23:13:23.291Z,7.90
2018-12-29T23:15:56.949Z,5.70
2018-12-29T23:18:30.608Z,5.30
2018-12-29T23:21:04.235Z,5.80
2018-12-29T23:23:37.962Z,5.00
2018-12-29T23:26:13.085Z,4.87
2018-12-29T23:28:46.851Z,4.60
2018-12-29T23:31:32.255Z,4.53
2018-12-29T23:34:05.878Z,4.00
2018-12-29T23:36:39.471Z,3.23
2018-12-29T23:39:13.090Z,3.17
2018-12-29T23:41:47.360Z,2.53
2018-12-29T23:44:20.982Z,1.93
2018-12-29T23:46:54.584Z,2.13
2018-12-29T23:49:34.764Z,1.60
2018-12-29T23:52:08.756Z,1.30
2018-12-29T23:54:42.393Z,1.80
2018-12-29T23:57:16.158Z,1.80
2018-12-29T23:59:50.232Z,2.60
